createdAt,value
2017-12-26T00:01:10.096Z,2.50
2017-12-26T00:03:37.600Z,2.40
2017-12-26T00:06:05.142Z,2.20
2017-12-26T00:08:33.408Z,2.40
2017-12-26T00:11:00.903Z,2.40
2017-12-26T00:13:28.427Z,2.50
2017-12-26T00:15:55.928Z,2.80
2017-12-26T00:18:23.419Z,2.80
2017-12-26T00:20:50.941Z,2.70
2017-12-26T00:23:18.448Z,2.60
2017-12-26T00:25:45.962Z,2.50
2017-12-26T00:28:13.450Z,2.30
2017-12-26T00:30:40.959Z,2.30
2017-12-26T00:33:08.508Z,2.30
2017-12-26T00:35:36.762Z,2.20
2017-12-26T00:38:04.292Z,2.20
2017-12-26T00:40:31.786Z,2.20
2017-12-26T00:42:59.293Z,2.10
2017-12-26T00:45:26.802Z,2.20
2017-12-26T00:47:54.300Z,2.20
2017-12-26T00:50:21.832Z,2.20
2017-12-26T00:52:50.082Z,2.20
2017-12-26T00:55:17.574Z,2.20
2017-12-26T00:57:45.861Z,2.40
2017-12-26T01:00:13.364Z,2.40
2017-12-26T01:02:40.874Z,2.40
2017-12-26T01:05:08.376Z,2.40
2017-12-26T01:07:35.880Z,2.40
2017-12-26T01:10:04.150Z,2.40
2017-12-26T01:12:32.405Z,2.20
2017-12-26T01:14:59.923Z,2.20
2017-12-26T01:17:27.432Z,2.10
2017-12-26T01:19:55.700Z,2.00
2017-12-26T01:22:23.211Z,2.00
2017-12-26T01:24:50.712Z,2.00
2017-12-26T01:27:18.240Z,1.80
2017-12-26T01:29:45.734Z,1.70
2017-12-26T01:32:13.223Z,1.70
2017-12-26T01:34:40.751Z,1.60
2017-12-26T01:37:08.258Z,1.60
2017-12-26T01:39:35.788Z,1.70
2017-12-26T01:42:04.046Z,1.60
2017-12-26T01:44:31.553Z,1.50
2017-12-26T01:46:59.079Z,1.50
2017-12-26T01:49:27.353Z,1.50
2017-12-26T01:51:55.662Z,1.40
2017-12-26T01:54:23.161Z,1.40
2017-12-26T01:56:50.673Z,1.40
2017-12-26T01:59:18.197Z,1.40
2017-12-26T02:01:46.449Z,1.60
2017-12-26T02:04:14.000Z,1.60
2017-12-26T02:06:41.509Z,2.00
2017-12-26T02:09:09.860Z,1.90
2017-12-26T02:11:38.170Z,3.20
2017-12-26T02:14:05.739Z,3.20
2017-12-26T02:16:33.294Z,4.00
2017-12-26T02:19:00.790Z,4.40
2017-12-26T02:21:28.282Z,4.40
2017-12-26T02:23:56.547Z,4.60
2017-12-26T02:26:24.826Z,4.70
2017-12-26T02:28:53.110Z,4.80
2017-12-26T02:31:20.625Z,4.70
2017-12-26T02:33:48.134Z,4.70
2017-12-26T02:36:15.642Z,4.70
2017-12-26T02:38:43.133Z,4.50
2017-12-26T02:41:11.435Z,4.30
2017-12-26T02:43:38.941Z,4.30
2017-12-26T02:46:06.457Z,4.30
2017-12-26T02:48:33.967Z,4.40
2017-12-26T02:51:01.468Z,4.40
2017-12-26T02:53:28.991Z,4.40
2017-12-26T02:55:56.483Z,4.60
2017-12-26T02:58:23.996Z,4.70
2017-12-26T03:00:51.503Z,5.00
2017-12-26T03:03:19.051Z,5.20
2017-12-26T03:05:46.566Z,5.50
2017-12-26T03:08:14.056Z,5.50
2017-12-26T03:10:42.328Z,5.30
2017-12-26T03:13:10.622Z,5.40
2017-12-26T03:15:38.125Z,5.40
2017-12-26T03:18:05.638Z,5.40
2017-12-26T03:20:33.140Z,5.50
2017-12-26T03:23:00.655Z,5.50
2017-12-26T03:25:28.232Z,5.50
2017-12-26T03:27:55.749Z,5.50
2017-12-26T03:30:24.064Z,5.60
2017-12-26T03:32:51.568Z,5.60
2017-12-26T03:35:19.059Z,5.50
2017-12-26T03:37:46.580Z,5.50
2017-12-26T03:40:14.077Z,5.80
2017-12-26T03:42:41.612Z,5.90
2017-12-26T03:45:09.875Z,6.00
2017-12-26T03:47:37.377Z,6.00
2017-12-26T03:50:04.951Z,6.00
2017-12-26T03:52:32.473Z,6.10
2017-12-26T03:55:00.759Z,6.20
2017-12-26T03:57:28.254Z,6.20
2017-12-26T03:59:55.765Z,6.30
2017-12-26T04:02:24.047Z,6.50
2017-12-26T04:04:52.315Z,6.60
2017-12-26T04:07:20.631Z,6.60
2017-12-26T04:09:48.138Z,6.60
2017-12-26T04:12:16.438Z,6.70
2017-12-26T04:14:43.950Z,6.70
2017-12-26T04:17:11.447Z,6.70
2017-12-26T04:19:39.748Z,6.70
2017-12-26T04:22:07.260Z,6.70
2017-12-26T04:24:34.750Z,6.60
2017-12-26T04:27:02.278Z,6.50
2017-12-26T04:29:29.780Z,6.50
2017-12-26T04:31:57.325Z,6.40
2017-12-26T04:34:24.827Z,6.30
2017-12-26T04:36:52.323Z,6.30
2017-12-26T04:39:20.606Z,6.50
2017-12-26T04:41:48.876Z,6.60
2017-12-26T04:44:17.158Z,6.70
2017-12-26T04:46:45.423Z,6.50
2017-12-26T04:49:13.702Z,6.60
2017-12-26T04:51:41.978Z,6.70
2017-12-26T04:54:10.361Z,6.80
2017-12-26T04:56:38.650Z,6.70
2017-12-26T04:59:06.141Z,6.70
2017-12-26T05:01:33.643Z,6.80
2017-12-26T05:04:01.937Z,6.80
2017-12-26T05:06:29.453Z,6.80
2017-12-26T05:08:56.980Z,6.90
2017-12-26T05:11:24.495Z,6.90
2017-12-26T05:13:52.809Z,7.00
2017-12-26T05:16:20.336Z,7.00
2017-12-26T05:18:48.598Z,6.90
2017-12-26T05:21:16.901Z,6.80
2017-12-26T05:23:44.420Z,6.80
2017-12-26T05:26:11.933Z,7.00
2017-12-26T05:28:39.455Z,7.00
2017-12-26T05:31:07.729Z,7.00
2017-12-26T05:33:35.249Z,7.00
2017-12-26T05:36:02.738Z,7.10
2017-12-26T05:38:30.250Z,7.10
2017-12-26T05:40:57.770Z,7.20
2017-12-26T05:43:26.031Z,7.30
2017-12-26T05:45:53.550Z,7.30
2017-12-26T05:48:21.074Z,7.20
2017-12-26T05:50:48.585Z,7.20
2017-12-26T05:53:16.117Z,7.00
2017-12-26T05:55:43.676Z,7.10
2017-12-26T05:58:11.203Z,7.10
2017-12-26T06:00:39.478Z,7.10
2017-12-26T06:03:07.730Z,7.10
2017-12-26T06:05:35.241Z,7.10
2017-12-26T06:08:02.752Z,7.10
2017-12-26T06:10:30.294Z,7.20
2017-12-26T06:12:57.791Z,7.30
2017-12-26T06:15:25.321Z,7.30
2017-12-26T06:17:52.849Z,7.20
2017-12-26T06:20:20.347Z,7.50
2017-12-26T06:22:48.653Z,7.60
2017-12-26T06:25:16.147Z,7.60
2017-12-26T06:27:43.633Z,7.70
2017-12-26T06:30:11.143Z,7.80
2017-12-26T06:32:38.648Z,7.80
2017-12-26T06:35:06.188Z,7.80
2017-12-26T06:37:33.690Z,7.90
2017-12-26T06:40:01.198Z,8.00
2017-12-26T06:42:28.737Z,8.00
2017-12-26T06:44:56.244Z,8.00
2017-12-26T06:47:24.557Z,8.00
2017-12-26T06:49:52.048Z,8.00
2017-12-26T06:52:19.551Z,7.80
2017-12-26T06:54:47.836Z,7.90
2017-12-26T06:57:15.334Z,7.90
2017-12-26T06:59:42.853Z,8.00
2017-12-26T07:02:10.367Z,8.00
2017-12-26T07:04:37.884Z,8.00
2017-12-26T07:07:05.440Z,8.00
2017-12-26T07:09:32.950Z,8.00
2017-12-26T07:12:00.510Z,8.10
2017-12-26T07:14:28.021Z,8.10
2017-12-26T07:16:55.538Z,8.10
2017-12-26T07:19:28.698Z,8.20
2017-12-26T07:22:01.875Z,8.20
2017-12-26T07:24:29.421Z,8.20
2017-12-26T07:26:56.913Z,8.20
2017-12-26T07:29:24.422Z,8.30
2017-12-26T07:31:51.914Z,8.20
2017-12-26T07:34:19.425Z,8.20
2017-12-26T07:36:47.703Z,8.20
2017-12-26T07:39:15.981Z,8.20
2017-12-26T07:41:43.511Z,8.20
2017-12-26T07:44:11.020Z,8.20
2017-12-26T07:46:38.533Z,8.10
2017-12-26T07:49:06.066Z,8.10
2017-12-26T07:51:33.585Z,7.90
2017-12-26T07:54:01.101Z,7.80
2017-12-26T07:56:28.594Z,7.60
2017-12-26T07:58:56.113Z,7.60
2017-12-26T08:01:23.668Z,7.60
2017-12-26T08:03:51.176Z,7.60
2017-12-26T08:06:18.695Z,7.60
2017-12-26T08:08:47.700Z,7.50
2017-12-26T08:11:16.018Z,7.40
2017-12-26T08:13:43.526Z,7.40
2017-12-26T08:16:11.037Z,7.40
2017-12-26T08:18:38.576Z,7.30
2017-12-26T08:21:06.080Z,7.20
2017-12-26T08:23:33.588Z,7.10
2017-12-26T08:26:01.121Z,7.10
2017-12-26T08:28:29.401Z,7.00
2017-12-26T08:30:57.712Z,7.00
2017-12-26T08:33:25.229Z,7.00
2017-12-26T08:35:52.737Z,7.00
2017-12-26T08:38:20.261Z,6.90
2017-12-26T08:40:48.526Z,6.90
2017-12-26T08:43:16.846Z,6.80
2017-12-26T08:45:44.342Z,6.80
2017-12-26T08:48:11.855Z,6.80
2017-12-26T08:50:39.371Z,6.70
2017-12-26T08:53:06.858Z,6.60
2017-12-26T08:55:35.153Z,6.40
2017-12-26T08:58:02.656Z,6.40
2017-12-26T09:00:30.151Z,6.40
2017-12-26T09:02:57.659Z,6.30
2017-12-26T09:05:25.150Z,6.30
2017-12-26T09:07:53.500Z,6.10
2017-12-26T09:10:20.995Z,6.10
2017-12-26T09:12:49.273Z,6.00
2017-12-26T09:15:17.555Z,6.00
2017-12-26T09:17:45.071Z,6.00
2017-12-26T09:20:12.582Z,5.90
2017-12-26T09:22:40.084Z,5.90
2017-12-26T09:25:07.595Z,6.00
2017-12-26T09:27:35.129Z,6.00
2017-12-26T09:30:02.664Z,6.00
2017-12-26T09:32:30.183Z,5.90
2017-12-26T09:34:57.674Z,5.80
2017-12-26T09:37:25.195Z,5.70
2017-12-26T09:39:52.716Z,5.70
2017-12-26T09:42:20.974Z,5.60
2017-12-26T09:44:49.254Z,5.60
2017-12-26T09:47:16.738Z,5.60
2017-12-26T09:49:45.047Z,5.60
2017-12-26T09:52:12.554Z,5.60
2017-12-26T09:54:40.043Z,5.60
2017-12-26T09:57:07.568Z,5.70
2017-12-26T09:59:35.077Z,5.70
2017-12-26T10:02:02.572Z,5.70
2017-12-26T10:04:30.094Z,5.70
2017-12-26T10:06:57.601Z,5.60
2017-12-26T10:09:25.146Z,5.70
2017-12-26T10:11:52.634Z,5.60
2017-12-26T10:14:20.900Z,5.70
2017-12-26T10:16:49.166Z,5.60
2017-12-26T10:19:17.446Z,5.60
2017-12-26T10:21:45.726Z,5.70
2017-12-26T10:24:13.233Z,5.60
2017-12-26T10:26:40.736Z,5.70
2017-12-26T10:29:08.242Z,5.70
2017-12-26T10:31:35.753Z,5.70
2017-12-26T10:34:03.281Z,5.80
2017-12-26T10:36:30.821Z,5.80
2017-12-26T10:38:58.312Z,5.80
2017-12-26T10:41:25.934Z,5.80
2017-12-26T10:43:53.494Z,5.80
2017-12-26T10:46:21.030Z,5.90
2017-12-26T10:48:48.526Z,5.90
2017-12-26T10:51:16.016Z,5.90
2017-12-26T10:53:44.346Z,5.90
2017-12-26T10:56:11.868Z,5.90
2017-12-26T10:58:39.399Z,6.00
2017-12-26T11:01:06.910Z,6.00
2017-12-26T11:03:34.428Z,6.00
2017-12-26T11:06:01.947Z,6.10
2017-12-26T11:08:29.459Z,6.10
2017-12-26T11:10:57.715Z,6.00
2017-12-26T11:13:25.224Z,6.00
2017-12-26T11:15:52.772Z,6.10
2017-12-26T11:18:20.293Z,6.10
2017-12-26T11:20:47.795Z,6.10
2017-12-26T11:23:15.355Z,6.20
2017-12-26T11:25:42.847Z,6.30
2017-12-26T11:28:10.346Z,6.60
2017-12-26T11:30:38.622Z,7.30
2017-12-26T11:33:06.878Z,7.30
2017-12-26T11:35:34.394Z,7.20
2017-12-26T11:38:01.898Z,7.20
2017-12-26T11:40:30.180Z,7.10
2017-12-26T11:42:57.719Z,7.10
2017-12-26T11:45:25.245Z,7.10
2017-12-26T11:47:52.758Z,7.00
2017-12-26T11:50:21.019Z,6.90
2017-12-26T11:52:48.523Z,6.80
2017-12-26T11:55:16.039Z,6.90
2017-12-26T11:57:44.335Z,7.10
2017-12-26T12:00:12.611Z,7.20
2017-12-26T12:02:40.866Z,7.30
2017-12-26T12:05:08.389Z,7.30
2017-12-26T12:07:35.883Z,7.80
2017-12-26T12:10:03.405Z,7.60
2017-12-26T12:12:30.927Z,7.40
2017-12-26T12:14:59.182Z,7.20
2017-12-26T12:17:27.469Z,7.10
2017-12-26T12:19:55.770Z,8.30
2017-12-26T12:22:23.321Z,8.20
2017-12-26T12:24:50.841Z,8.20
2017-12-26T12:27:18.348Z,8.10
2017-12-26T12:29:45.864Z,11.40
2017-12-26T12:32:13.363Z,13.00
2017-12-26T12:34:40.896Z,14.40
2017-12-26T12:37:09.154Z,15.60
2017-12-26T12:39:36.764Z,15.60
2017-12-26T12:42:04.292Z,13.10
2017-12-26T12:44:32.560Z,9.50
2017-12-26T12:47:00.874Z,8.50
2017-12-26T12:49:28.375Z,8.50
2017-12-26T12:51:55.885Z,8.00
2017-12-26T12:54:23.454Z,7.80
2017-12-26T12:56:50.969Z,7.50
2017-12-26T12:59:19.262Z,7.30
2017-12-26T13:01:46.758Z,7.30
2017-12-26T13:04:14.271Z,7.20
2017-12-26T13:06:42.527Z,7.50
2017-12-26T13:09:10.058Z,7.50
2017-12-26T13:11:37.572Z,8.60
2017-12-26T13:14:05.092Z,8.50
2017-12-26T13:16:32.601Z,8.30
2017-12-26T13:19:00.115Z,8.20
2017-12-26T13:21:27.616Z,8.80
2017-12-26T13:23:55.122Z,9.00
2017-12-26T13:26:22.630Z,8.60
2017-12-26T13:28:50.136Z,8.20
2017-12-26T13:31:17.663Z,7.90
2017-12-26T13:33:45.166Z,7.60
2017-12-26T13:36:12.655Z,7.40
2017-12-26T13:38:40.223Z,7.50
2017-12-26T13:41:07.737Z,9.20
2017-12-26T13:43:35.276Z,8.80
2017-12-26T13:46:02.776Z,9.40
2017-12-26T13:48:31.052Z,9.10
2017-12-26T13:50:59.349Z,8.60
2017-12-26T13:53:26.851Z,8.60
2017-12-26T13:55:54.375Z,8.10
2017-12-26T13:58:21.887Z,7.90
2017-12-26T14:00:49.394Z,7.70
2017-12-26T14:03:16.932Z,7.50
2017-12-26T14:05:44.451Z,7.30
2017-12-26T14:08:11.989Z,7.10
2017-12-26T14:10:39.501Z,7.10
2017-12-26T14:13:07.760Z,7.00
2017-12-26T14:15:35.289Z,7.00
2017-12-26T14:18:02.782Z,7.00
2017-12-26T14:20:31.084Z,6.80
2017-12-26T14:22:58.579Z,6.80
2017-12-26T14:25:26.084Z,6.70
2017-12-26T14:27:54.373Z,6.60
2017-12-26T14:30:21.881Z,6.50
2017-12-26T14:32:49.390Z,6.50
2017-12-26T14:35:16.882Z,6.50
2017-12-26T14:37:44.409Z,6.50
2017-12-26T14:40:11.929Z,6.50
2017-12-26T14:42:39.423Z,6.40
2017-12-26T14:45:06.949Z,6.40
2017-12-26T14:47:34.443Z,6.30
2017-12-26T14:50:01.963Z,6.30
2017-12-26T14:52:29.459Z,6.30
2017-12-26T14:54:56.965Z,6.20
2017-12-26T14:57:24.484Z,6.20
2017-12-26T14:59:51.975Z,6.20
2017-12-26T15:02:19.492Z,6.30
2017-12-26T15:04:46.978Z,6.20
2017-12-26T15:07:14.495Z,6.20
2017-12-26T15:09:41.994Z,6.10
2017-12-26T15:12:09.507Z,6.10
2017-12-26T15:14:37.783Z,6.10
2017-12-26T15:17:05.288Z,6.10
2017-12-26T15:19:32.808Z,6.10
2017-12-26T15:22:00.307Z,6.20
2017-12-26T15:24:27.803Z,6.20
2017-12-26T15:26:56.094Z,6.10
2017-12-26T15:29:24.366Z,6.00
2017-12-26T15:31:52.634Z,5.90
2017-12-26T15:34:20.900Z,5.90
2017-12-26T15:36:48.420Z,5.90
2017-12-26T15:39:15.930Z,5.90
2017-12-26T15:41:44.216Z,5.80
2017-12-26T15:44:12.474Z,5.80
2017-12-26T15:46:40.754Z,5.70
2017-12-26T15:49:09.010Z,5.70
2017-12-26T15:51:36.500Z,5.70
2017-12-26T15:54:04.762Z,5.70
2017-12-26T15:56:33.031Z,5.70
2017-12-26T15:59:01.328Z,5.60
2017-12-26T16:01:29.583Z,5.60
2017-12-26T16:03:57.093Z,5.60
2017-12-26T16:06:24.617Z,5.60
2017-12-26T16:08:52.890Z,5.50
2017-12-26T16:11:21.218Z,5.30
2017-12-26T16:13:48.698Z,5.30
2017-12-26T16:16:16.213Z,5.30
2017-12-26T16:18:43.727Z,5.20
2017-12-26T16:21:11.228Z,5.20
2017-12-26T16:23:38.752Z,5.20
2017-12-26T16:26:07.024Z,5.30
2017-12-26T16:28:35.299Z,5.30
2017-12-26T16:31:03.554Z,5.40
2017-12-26T16:33:31.875Z,5.40
2017-12-26T16:35:59.392Z,5.40
2017-12-26T16:38:26.874Z,5.40
2017-12-26T16:40:55.161Z,5.40
2017-12-26T16:43:22.669Z,5.40
2017-12-26T16:45:50.208Z,5.30
2017-12-26T16:48:17.707Z,5.30
2017-12-26T16:50:45.222Z,5.30
2017-12-26T16:53:12.731Z,5.30
2017-12-26T16:55:40.991Z,5.30
2017-12-26T16:58:08.521Z,5.20
2017-12-26T17:00:36.044Z,5.30
2017-12-26T17:03:04.336Z,5.20
2017-12-26T17:05:31.843Z,5.20
2017-12-26T17:07:59.349Z,5.20
2017-12-26T17:10:26.884Z,5.30
2017-12-26T17:12:55.161Z,5.40
2017-12-26T17:15:23.424Z,5.40
2017-12-26T17:17:51.695Z,5.40
2017-12-26T17:20:19.191Z,5.40
2017-12-26T17:22:46.690Z,5.20
2017-12-26T17:25:14.194Z,5.00
2017-12-26T17:27:42.462Z,4.80
2017-12-26T17:30:10.710Z,4.80
2017-12-26T17:32:38.233Z,4.70
2017-12-26T17:35:05.741Z,4.80
2017-12-26T17:37:33.245Z,4.80
2017-12-26T17:40:00.754Z,4.80
2017-12-26T17:42:28.258Z,4.80
2017-12-26T17:44:55.780Z,4.80
2017-12-26T17:47:24.057Z,5.10
2017-12-26T17:49:52.327Z,5.10
2017-12-26T17:52:19.853Z,5.00
2017-12-26T17:54:47.356Z,5.00
2017-12-26T17:57:15.630Z,4.70
2017-12-26T17:59:43.897Z,4.60
2017-12-26T18:02:11.422Z,4.60
2017-12-26T18:04:38.936Z,4.50
2017-12-26T18:07:07.215Z,4.30
2017-12-26T18:09:34.722Z,4.30
2017-12-26T18:12:02.230Z,4.30
2017-12-26T18:14:29.734Z,4.30
2017-12-26T18:16:57.224Z,4.30
2017-12-26T18:19:24.745Z,4.30
2017-12-26T18:21:52.245Z,4.40
2017-12-26T18:24:19.759Z,4.40
2017-12-26T18:26:47.269Z,4.40
2017-12-26T18:29:15.525Z,4.50
2017-12-26T18:31:43.068Z,4.50
2017-12-26T18:34:10.575Z,4.50
2017-12-26T18:36:38.091Z,4.50
2017-12-26T18:39:05.814Z,4.60
2017-12-26T18:41:33.359Z,4.60
2017-12-26T18:44:00.860Z,4.60
2017-12-26T18:46:28.372Z,4.50
2017-12-26T18:48:55.885Z,4.50
2017-12-26T18:51:23.384Z,4.40
2017-12-26T18:53:51.649Z,4.40
2017-12-26T18:56:19.924Z,4.50
2017-12-26T18:58:48.210Z,4.60
2017-12-26T19:01:16.471Z,4.70
2017-12-26T19:03:43.963Z,4.70
2017-12-26T19:06:11.475Z,4.80
2017-12-26T19:08:39.735Z,4.90
2017-12-26T19:11:07.238Z,4.90
2017-12-26T19:13:35.508Z,5.10
2017-12-26T19:16:03.803Z,5.10
2017-12-26T19:18:31.296Z,5.10
2017-12-26T19:20:58.782Z,5.10
2017-12-26T19:23:26.288Z,5.10
2017-12-26T19:25:53.778Z,5.10
2017-12-26T19:28:21.306Z,5.10
2017-12-26T19:30:48.803Z,5.00
2017-12-26T19:33:16.315Z,5.10
2017-12-26T19:35:43.814Z,5.10
2017-12-26T19:38:11.302Z,5.10
2017-12-26T19:40:39.565Z,5.10
2017-12-26T19:43:07.069Z,5.10
2017-12-26T19:45:34.590Z,5.10
2017-12-26T19:48:02.098Z,5.10
2017-12-26T19:50:29.615Z,5.10
2017-12-26T19:52:57.871Z,5.00
2017-12-26T19:55:25.359Z,5.10
2017-12-26T19:57:53.649Z,4.90
2017-12-26T20:00:21.157Z,4.90
2017-12-26T20:02:48.657Z,4.90
2017-12-26T20:05:16.173Z,4.80
2017-12-26T20:07:44.454Z,4.50
2017-12-26T20:10:11.965Z,4.50
2017-12-26T20:12:39.474Z,4.40
2017-12-26T20:15:06.983Z,4.40
2017-12-26T20:17:34.545Z,4.30
2017-12-26T20:20:02.071Z,4.20
2017-12-26T20:22:30.349Z,4.00
2017-12-26T20:24:58.880Z,3.90
2017-12-26T20:27:26.365Z,3.90
2017-12-26T20:29:57.674Z,3.90
2017-12-26T20:32:25.174Z,3.80
2017-12-26T20:34:52.671Z,3.90
2017-12-26T20:37:20.175Z,4.00
2017-12-26T20:39:47.674Z,3.80
2017-12-26T20:42:15.945Z,3.90
2017-12-26T20:44:44.208Z,3.90
2017-12-26T20:47:11.690Z,3.90
2017-12-26T20:49:39.959Z,3.90
2017-12-26T20:52:08.325Z,3.80
2017-12-26T20:54:36.589Z,3.80
2017-12-26T20:57:04.083Z,3.70
2017-12-26T20:59:31.607Z,3.70
2017-12-26T21:01:59.114Z,3.80
2017-12-26T21:04:26.617Z,3.80
2017-12-26T21:06:54.153Z,3.80
2017-12-26T21:09:21.643Z,3.70
2017-12-26T21:11:49.929Z,4.10
2017-12-26T21:14:18.178Z,4.20
2017-12-26T21:16:45.691Z,4.20
2017-12-26T21:19:13.197Z,4.30
2017-12-26T21:21:40.701Z,4.40
2017-12-26T21:24:08.230Z,4.40
2017-12-26T21:26:36.500Z,4.50
2017-12-26T21:29:05.505Z,4.50
2017-12-26T21:31:33.749Z,4.50
2017-12-26T21:34:01.248Z,4.40
2017-12-26T21:36:29.541Z,4.30
2017-12-26T21:38:57.053Z,4.30
2017-12-26T21:41:24.578Z,4.30
2017-12-26T21:43:52.089Z,4.20
2017-12-26T21:46:20.380Z,4.10
2017-12-26T21:48:47.889Z,4.10
2017-12-26T21:51:15.370Z,4.10
2017-12-26T21:53:42.892Z,4.10
2017-12-26T21:56:10.387Z,4.00
2017-12-26T21:58:37.894Z,4.10
2017-12-26T22:01:05.405Z,4.20
2017-12-26T22:03:32.927Z,4.10
2017-12-26T22:06:00.410Z,4.20
2017-12-26T22:08:27.913Z,4.20
2017-12-26T22:10:55.436Z,4.10
2017-12-26T22:13:23.699Z,4.10
2017-12-26T22:15:51.217Z,4.10
2017-12-26T22:18:18.707Z,4.10
2017-12-26T22:20:46.194Z,4.10
2017-12-26T22:23:14.475Z,4.00
2017-12-26T22:25:42.758Z,4.10
2017-12-26T22:28:11.006Z,4.00
2017-12-26T22:30:38.489Z,4.00
2017-12-26T22:33:06.768Z,4.10
2017-12-26T22:35:35.021Z,4.00
2017-12-26T22:38:02.544Z,3.90
2017-12-26T22:40:30.030Z,4.10
2017-12-26T22:42:58.285Z,4.10
2017-12-26T22:45:25.806Z,4.10
2017-12-26T22:47:53.320Z,4.10
2017-12-26T22:50:20.849Z,4.10
2017-12-26T22:52:48.334Z,4.20
2017-12-26T22:55:15.830Z,4.10
2017-12-26T22:57:43.354Z,4.10
2017-12-26T23:00:10.842Z,4.10
2017-12-26T23:02:38.375Z,4.10
2017-12-26T23:05:05.866Z,4.10
2017-12-26T23:07:33.363Z,4.20
2017-12-26T23:10:00.884Z,4.20
2017-12-26T23:12:28.392Z,4.20
2017-12-26T23:18:02.575Z,4.30
2017-12-26T23:20:36.077Z,4.40
2017-12-26T23:23:09.300Z,4.50
2017-12-26T23:25:42.561Z,4.60
2017-12-26T23:28:15.821Z,4.70
2017-12-26T23:30:49.852Z,4.80
2017-12-26T23:36:28.445Z,4.90
2017-12-26T23:39:01.550Z,5.00
2017-12-26T23:41:34.685Z,5.00
2017-12-26T23:44:07.927Z,5.00
2017-12-26T23:46:41.260Z,5.10
2017-12-26T23:49:14.541Z,5.10
2017-12-26T23:51:48.440Z,5.20
2017-12-26T23:54:21.762Z,5.10
2017-12-26T23:56:54.875Z,5.10
